Home   Weather   USA   Danville   Past weeks
Flag for USA

Past Weather in Danville, Kentucky, USA — Yesterday and Last 2 Weeks

Currently: 32 °F. Clear. (Weather station: Somerset Weather Reporting Station, USA). See more current weather

Past Weather in Danville — Graph

°F

Danville Temperature Yesterday

Maximum temperature yesterday: 55 °F (at 3:15 pm)
Minimum temperature yesterday: 27 °F (at 5:15 am)
Average temperature yesterday: 39 °F

High & Low Weather Summary for the Past Weeks

 TemperatureHumidityPressure
High70 °F (Feb 24, 3:55 pm)100% (Feb 23, 12:55 am)30.47 "Hg (Feb 23, 12:55 am)
Low9 °F (Feb 20, 6:35 am)16% (Mar 2, 3:35 pm)29.83 "Hg (Feb 28, 6:15 pm)
Average39 °F68%30.17 "Hg
* Reported Feb 17 4:15 am — Mar 4 4:35 am, Danville. Weather by CustomWeather, © 2021

Note: Actual official high and low records may vary slightly from our data, if they occured in-between our weather recording intervals... More about our weather records

Danville Weather History for the Previous 24 Hours

Scroll right to see more
 ConditionsComfort  
Time TempWeatherWind HumidityBarometerVisibility
4:35 am
Thu, Mar 4
32 °FClear.No wind93%30.10 "Hg10 mi
4:15 am32 °FClear.No wind93%30.10 "Hg10 mi
3:55 am32 °FClear.No wind87%30.10 "Hg10 mi
3:35 am34 °FClear.No wind87%30.10 "Hg10 mi
3:15 am32 °FClear.No wind87%30.10 "Hg10 mi
2:55 am34 °FClear.No wind87%30.10 "Hg10 mi
2:15 am34 °FClear.No wind81%30.11 "Hg10 mi
1:55 am34 °FClear.No wind87%30.10 "Hg10 mi
1:35 am34 °FClear.No wind87%30.10 "Hg10 mi
1:15 am34 °FClear.No wind87%30.10 "Hg10 mi
12:55 am36 °FClear.No wind81%30.10 "Hg10 mi
12:35 am36 °FClear.No wind75%30.10 "Hg10 mi
12:15 am36 °FClear.No wind81%30.10 "Hg10 mi
11:55 pm
Wed, Mar 3
36 °FClear.No wind81%30.11 "Hg10 mi
11:35 pm36 °FClear.No wind81%30.11 "Hg10 mi
11:15 pm37 °FClear.No wind75%30.11 "Hg10 mi
10:35 pm39 °FClear.No wind65%30.11 "Hg10 mi
10:15 pm41 °FClear.No wind61%30.10 "Hg10 mi
9:55 pm41 °FClear.No wind66%30.10 "Hg10 mi
9:35 pm41 °FClear.No wind66%30.09 "Hg10 mi
9:15 pm41 °FClear.No wind66%30.08 "Hg10 mi
8:55 pm43 °FClear.No wind57%30.08 "Hg10 mi
8:35 pm43 °FClear.No wind57%30.08 "Hg10 mi
8:15 pm45 °FClear.No wind49%30.08 "Hg10 mi
7:55 pm46 °FClear.No wind46%30.08 "Hg10 mi
7:15 pm50 °FClear.3 mph37%30.08 "Hg10 mi
6:55 pm50 °FClear.No wind37%30.08 "Hg10 mi
6:35 pm52 °FClear.5 mph35%30.08 "Hg10 mi
6:15 pm54 °FSunny.3 mph30%30.07 "Hg10 mi
5:55 pm54 °FSunny.7 mph30%30.07 "Hg10 mi
5:15 pm55 °FSunny.6 mph28%30.06 "Hg10 mi
4:55 pm55 °FSunny.5 mph28%30.06 "Hg10 mi
4:15 pm55 °FSunny.7 mph28%30.07 "Hg10 mi
3:55 pm55 °FSunny.5 mph28%30.07 "Hg10 mi
3:35 pm55 °FSunny.6 mph28%30.07 "Hg10 mi
3:15 pm55 °FSunny.7 mph31%30.07 "Hg10 mi
2:55 pm54 °FSunny.8 mph30%30.07 "Hg10 mi
2:35 pm54 °FSunny.9 mph30%30.07 "Hg10 mi
2:15 pm54 °FSunny.8 mph30%30.08 "Hg10 mi
1:35 pm52 °FSunny.No wind32%30.10 "Hg10 mi
1:15 pm52 °FSunny.No wind30%30.11 "Hg10 mi
12:55 pm52 °FSunny.No wind32%30.12 "Hg10 mi
12:15 pm48 °FSunny.No wind37%30.14 "Hg10 mi
11:55 am46 °FSunny.No wind40%30.14 "Hg10 mi
11:15 am45 °FSunny.No wind39%30.15 "Hg10 mi
10:55 am43 °FSunny.3 mph42%30.15 "Hg10 mi
10:35 am43 °FSunny.5 mph49%30.15 "Hg10 mi
10:15 am41 °FSunny.No wind53%30.15 "Hg10 mi
9:55 am37 °FSunny.No wind65%30.15 "Hg10 mi
9:35 am36 °FSunny.No wind70%30.15 "Hg10 mi
9:15 am34 °FSunny.No wind75%30.15 "Hg10 mi
8:55 am32 °FSunny.No wind80%30.15 "Hg10 mi
8:15 am30 °FSunny.No wind80%30.15 "Hg10 mi
7:55 am28 °FSunny.No wind93%30.14 "Hg10 mi
7:15 am27 °FSunny.No wind86%30.13 "Hg10 mi
6:55 am27 °FClear.No wind86%30.13 "Hg10 mi
6:35 am27 °FClear.No wind86%30.13 "Hg10 mi
6:15 am27 °FClear.No wind86%30.12 "Hg10 mi
5:55 am27 °FClear.No wind86%30.12 "Hg10 mi
5:35 am27 °FClear.No wind86%30.12 "Hg10 mi
5:15 am27 °FClear.No wind86%30.11 "Hg10 mi
Weather by CustomWeather, © 2021

See weather overview